Lakeside, Washington
Current Conditions -  °F | °C
As of 7:55 AM on Saturday 22 Nov 2014 (Local Time) from KEAT Reporting Station
Clear Clear  
Wind Chill: 31°   Ceiling: Unl
Heat Index: 35°   Visibility: 10mi
Dew Point: 28°   Wind: 5mph
Humidity: 76%   Direction: 100°E
Pressure: 29.62"   Gusts: NA
Location:  47.9044°N, 120.153°W
Report Text: KEAT 221555Z AUTO 10004KT 10SM CLR 02/M02 A2962 RMK AO2 SLP042 T00171022
Loading
Personal Weather Stations






























Interactive Weather Map New forecast layout! Learn more

10-Day Weather Forecast

Advertisements
Track Severe Weather on mobile